createdAt,value
2022-12-20T00:00:10.123Z,1.35
2022-12-20T00:01:09.852Z,1.39
2022-12-20T00:02:10.591Z,1.36
2022-12-20T00:03:09.989Z,1.4
2022-12-20T00:04:10.046Z,1.39
2022-12-20T00:05:09.989Z,1.42
2022-12-20T00:06:09.735Z,1.53
2022-12-20T00:07:09.722Z,1.53
2022-12-20T00:08:09.687Z,1.48
2022-12-20T00:09:09.948Z,1.48
2022-12-20T00:10:09.908Z,1.57
2022-12-20T00:11:09.638Z,1.54
2022-12-20T00:12:09.635Z,1.56
2022-12-20T00:13:09.347Z,1.6
2022-12-20T00:14:09.835Z,1.68
2022-12-20T00:15:09.300Z,1.82
2022-12-20T00:16:09.815Z,1.71
2022-12-20T00:17:09.255Z,1.87
2022-12-20T00:18:10.188Z,1.84
2022-12-20T00:19:09.744Z,1.89
2022-12-20T00:20:09.482Z,2.02
2022-12-20T00:21:09.703Z,2.02
2022-12-20T00:22:09.413Z,2.09
2022-12-20T00:23:09.163Z,2.06
2022-12-20T00:24:19.356Z,2.09
2022-12-20T00:25:09.625Z,2.04
2022-12-20T00:26:09.347Z,2.04
2022-12-20T00:27:09.326Z,2.11
2022-12-20T00:28:09.306Z,2.15
2022-12-20T00:29:09.626Z,2.23
2022-12-20T00:30:09.268Z,2.13
2022-12-20T00:31:09.746Z,2.18
2022-12-20T00:32:09.774Z,2.16
2022-12-20T00:33:09.220Z,2.16
2022-12-20T00:34:09.534Z,2.18
2022-12-20T00:35:09.198Z,2.24
2022-12-20T00:36:09.429Z,2.22
2022-12-20T00:37:09.398Z,2.2
2022-12-20T00:38:09.378Z,2.2
2022-12-20T00:39:08.854Z,2.22
2022-12-20T00:40:09.088Z,2.18
2022-12-20T00:41:09.322Z,2.18
2022-12-20T00:42:08.811Z,2.18
2022-12-20T00:43:09.026Z,2.2
2022-12-20T00:44:09.051Z,2.22
2022-12-20T00:45:09.018Z,2.2
2022-12-20T00:46:09.256Z,2.2
2022-12-20T00:47:09.198Z,2.16
2022-12-20T00:48:09.232Z,2.23
2022-12-20T00:49:09.492Z,2.33
2022-12-20T00:50:09.783Z,2.27
2022-12-20T00:51:09.482Z,2.29
2022-12-20T00:52:09.692Z,2.45
2022-12-20T00:53:09.169Z,2.83
2022-12-20T00:54:09.726Z,3.17
2022-12-20T00:55:09.651Z,3.35
2022-12-20T00:56:09.376Z,3.6
2022-12-20T00:57:09.634Z,3.54
2022-12-20T00:58:09.331Z,3.67
2022-12-20T00:59:09.569Z,3.69
2022-12-20T01:00:09.052Z,3.53
2022-12-20T01:01:09.238Z,3.51
2022-12-20T01:02:10.152Z,3.42
2022-12-20T01:03:10.035Z,3.26
2022-12-20T01:04:09.500Z,3.19
2022-12-20T01:05:09.465Z,3.17
2022-12-20T01:06:09.469Z,3.19
2022-12-20T01:07:09.160Z,3.03
2022-12-20T01:08:09.399Z,3.01
2022-12-20T01:09:09.381Z,3.02
2022-12-20T01:10:09.368Z,2.99
2022-12-20T01:11:09.390Z,2.88
2022-12-20T01:12:09.070Z,2.8
2022-12-20T01:13:09.321Z,2.78
2022-12-20T01:14:09.027Z,2.76
2022-12-20T01:15:09.283Z,2.77
2022-12-20T01:16:09.230Z,2.59
2022-12-20T01:17:09.155Z,2.65
2022-12-20T01:18:09.238Z,2.59
2022-12-20T01:19:09.267Z,2.52
2022-12-20T01:20:09.235Z,2.51
2022-12-20T01:21:09.185Z,2.59
2022-12-20T01:22:09.185Z,2.55
2022-12-20T01:23:09.138Z,2.66
2022-12-20T01:24:09.149Z,2.58
2022-12-20T01:25:09.096Z,2.58
2022-12-20T01:26:08.848Z,2.58
2022-12-20T01:27:08.805Z,2.65
2022-12-20T01:28:09.060Z,2.69
2022-12-20T01:29:08.760Z,2.66
2022-12-20T01:30:09.008Z,2.77
2022-12-20T01:31:08.731Z,2.66
2022-12-20T01:32:09.022Z,2.72
2022-12-20T01:33:08.721Z,2.72
2022-12-20T01:34:08.665Z,2.73
2022-12-20T01:35:08.659Z,2.77
2022-12-20T01:36:08.948Z,2.78
2022-12-20T01:37:08.872Z,2.8
2022-12-20T01:38:08.630Z,2.77
2022-12-20T01:39:08.605Z,2.77
2022-12-20T01:40:08.557Z,2.8
2022-12-20T01:41:08.550Z,2.8
2022-12-20T01:42:08.787Z,2.81
2022-12-20T01:43:08.770Z,2.77
2022-12-20T01:44:08.758Z,2.8
2022-12-20T01:45:08.723Z,2.7
2022-12-20T01:46:08.983Z,2.81
2022-12-20T01:47:08.431Z,2.73
2022-12-20T01:48:08.413Z,2.72
2022-12-20T01:49:08.721Z,2.84
2022-12-20T01:50:08.117Z,2.83
2022-12-20T01:51:08.352Z,2.81
2022-12-20T01:52:08.666Z,2.88
2022-12-20T01:53:08.596Z,2.83
2022-12-20T01:54:08.599Z,2.85
2022-12-20T01:55:08.538Z,2.91
2022-12-20T01:56:08.318Z,3.01
2022-12-20T01:57:08.011Z,3.02
2022-12-20T01:58:08.511Z,3.02
2022-12-20T01:59:08.575Z,2.98
2022-12-20T02:00:08.798Z,3.09
2022-12-20T02:01:08.976Z,3.13
2022-12-20T02:02:09.284Z,3.17
2022-12-20T02:03:09.354Z,3.19
2022-12-20T02:04:08.702Z,3.16
2022-12-20T02:05:08.467Z,3.17
2022-12-20T02:06:08.401Z,3.09
2022-12-20T02:07:08.691Z,3.17
2022-12-20T02:08:08.417Z,3.06
2022-12-20T02:09:08.346Z,3.17
2022-12-20T02:10:08.603Z,3.03
2022-12-20T02:11:08.318Z,3.06
2022-12-20T02:12:08.293Z,2.93
2022-12-20T02:13:08.533Z,2.88
2022-12-20T02:14:08.617Z,2.99
2022-12-20T02:15:08.001Z,2.96
2022-12-20T02:16:08.536Z,2.96
2022-12-20T02:17:08.385Z,2.98
2022-12-20T02:18:08.186Z,2.98
2022-12-20T02:19:08.415Z,3.01
2022-12-20T02:20:08.402Z,2.9
2022-12-20T02:21:08.420Z,2.91
2022-12-20T02:22:08.107Z,2.9
2022-12-20T02:23:08.101Z,2.8
2022-12-20T02:24:08.364Z,2.78
2022-12-20T02:25:08.052Z,2.84
2022-12-20T02:26:08.339Z,2.8
2022-12-20T02:27:08.016Z,2.85
2022-12-20T02:28:08.008Z,2.77
2022-12-20T02:29:08.260Z,2.78
2022-12-20T02:30:08.239Z,2.81
2022-12-20T02:31:07.967Z,2.77
2022-12-20T02:32:08.487Z,2.69
2022-12-20T02:33:08.200Z,2.6
2022-12-20T02:34:07.884Z,2.67
2022-12-20T02:35:08.139Z,2.72
2022-12-20T02:36:07.592Z,2.72
2022-12-20T02:37:07.884Z,2.66
2022-12-20T02:38:07.824Z,2.66
2022-12-20T02:39:07.800Z,2.77
2022-12-20T02:40:07.866Z,2.81
2022-12-20T02:41:07.517Z,2.81
2022-12-20T02:42:08.048Z,2.81
2022-12-20T02:43:08.014Z,2.8
2022-12-20T02:44:07.711Z,2.81
2022-12-20T02:45:07.728Z,2.85
2022-12-20T02:46:07.812Z,2.87
2022-12-20T02:47:07.977Z,2.83
2022-12-20T02:48:07.899Z,2.95
2022-12-20T02:49:07.883Z,3.02
2022-12-20T02:50:07.855Z,2.99
2022-12-20T02:51:07.588Z,3.01
2022-12-20T02:52:07.582Z,2.96
2022-12-20T02:53:07.588Z,2.96
2022-12-20T02:54:07.538Z,2.98
2022-12-20T02:55:07.510Z,3.02
2022-12-20T02:56:07.769Z,2.99
2022-12-20T02:57:07.201Z,2.99
2022-12-20T02:58:07.735Z,3.05
2022-12-20T02:59:07.174Z,3.11
2022-12-20T03:00:07.413Z,3.17
2022-12-20T03:01:07.849Z,3.19
2022-12-20T03:02:08.138Z,3.17
2022-12-20T03:03:08.159Z,3.16
2022-12-20T03:04:07.596Z,3.14
2022-12-20T03:06:07.295Z,3.13
2022-12-20T03:07:07.561Z,3.2
2022-12-20T03:08:07.279Z,3.14
2022-12-20T03:09:07.275Z,3.14
2022-12-20T03:10:07.482Z,3.2
2022-12-20T03:11:07.464Z,3.11
2022-12-20T03:12:07.479Z,3.16
2022-12-20T03:13:07.430Z,3.16
2022-12-20T03:14:07.194Z,3.26
2022-12-20T03:15:07.449Z,3.13
2022-12-20T03:16:07.124Z,3.14
2022-12-20T03:17:07.646Z,3.06
2022-12-20T03:18:07.079Z,3.21
2022-12-20T03:19:07.320Z,3.05
2022-12-20T03:20:07.316Z,3.23
2022-12-20T03:21:07.029Z,3.16
2022-12-20T03:22:07.271Z,3.19
2022-12-20T03:23:07.000Z,3.06
2022-12-20T03:24:06.967Z,3.14
2022-12-20T03:25:07.001Z,3.03
2022-12-20T03:26:06.927Z,3.06
2022-12-20T03:27:07.202Z,3.03
2022-12-20T03:28:07.170Z,2.96
2022-12-20T03:29:06.873Z,3.05
2022-12-20T03:30:07.179Z,2.99
2022-12-20T03:31:07.117Z,2.98
2022-12-20T03:32:06.827Z,3.02
2022-12-20T03:49:37.217Z,2.98
2022-12-20T03:50:37.148Z,2.9
2022-12-20T03:51:36.842Z,2.93
2022-12-20T03:52:36.807Z,2.85
2022-12-20T03:53:37.060Z,2.8
2022-12-20T03:54:36.765Z,2.84
2022-12-20T03:55:37.003Z,2.84
2022-12-20T03:56:36.754Z,2.93
2022-12-20T03:57:36.456Z,2.83
2022-12-20T03:58:36.811Z,2.83
2022-12-20T03:59:36.921Z,2.83
2022-12-20T04:00:36.658Z,2.83
2022-12-20T04:01:37.360Z,2.83
2022-12-20T04:02:37.397Z,2.84
2022-12-20T04:03:37.114Z,2.8
2022-12-20T04:04:36.845Z,2.93
2022-12-20T04:05:36.919Z,2.83
2022-12-20T04:06:36.790Z,2.78
2022-12-20T04:07:36.792Z,2.8
2022-12-20T04:08:36.237Z,2.84
2022-12-20T04:09:36.740Z,2.85
2022-12-20T04:10:36.460Z,2.84
2022-12-20T04:11:36.695Z,2.85
2022-12-20T04:12:36.676Z,2.91
2022-12-20T04:13:36.404Z,2.91
2022-12-20T04:14:36.391Z,2.98
2022-12-20T04:15:36.816Z,2.9
2022-12-20T04:16:36.864Z,2.93
2022-12-20T04:17:36.606Z,2.96
2022-12-20T04:18:36.552Z,2.98
2022-12-20T04:19:36.323Z,3.03
2022-12-20T04:20:36.278Z,2.99
2022-12-20T04:21:36.608Z,2.96
2022-12-20T04:22:36.494Z,3.06
2022-12-20T04:23:36.473Z,2.95
2022-12-20T04:24:36.195Z,3.02
2022-12-20T04:25:36.178Z,2.99
2022-12-20T04:26:36.431Z,3.06
2022-12-20T04:27:36.422Z,2.88
2022-12-20T04:28:36.399Z,2.9
2022-12-20T04:29:36.377Z,2.91
2022-12-20T04:30:35.836Z,2.95
2022-12-20T04:31:36.761Z,2.88
2022-12-20T04:32:36.318Z,2.81
2022-12-20T04:33:36.314Z,2.81
2022-12-20T04:34:36.019Z,2.84
2022-12-20T04:35:35.991Z,2.91
2022-12-20T04:36:35.716Z,2.78
2022-12-20T04:37:36.304Z,2.85
2022-12-20T04:38:35.945Z,2.99
2022-12-20T04:39:36.199Z,2.87
2022-12-20T04:40:35.943Z,2.96
2022-12-20T04:41:35.887Z,2.93
2022-12-20T04:42:36.150Z,2.88
2022-12-20T04:43:36.122Z,2.91
2022-12-20T04:44:36.988Z,2.88
2022-12-20T04:45:36.291Z,2.91
2022-12-20T04:46:36.561Z,2.78
2022-12-20T04:47:36.260Z,2.9
2022-12-20T04:49:02.512Z,2.81
2022-12-20T04:49:35.940Z,2.87
2022-12-20T04:50:36.174Z,2.83
2022-12-20T04:51:35.936Z,2.83
2022-12-20T04:52:35.895Z,2.77
2022-12-20T04:53:36.225Z,2.83
2022-12-20T04:54:36.123Z,2.9
2022-12-20T04:55:35.822Z,2.83
2022-12-20T04:56:35.565Z,2.84
2022-12-20T04:57:35.551Z,2.78
2022-12-20T04:58:35.547Z,2.81
2022-12-20T04:59:35.754Z,2.8
2022-12-20T05:00:35.480Z,2.78
2022-12-20T05:01:36.410Z,2.8
2022-12-20T05:02:36.556Z,2.76
2022-12-20T05:03:35.944Z,2.72
2022-12-20T05:04:42.171Z,2.73
2022-12-20T05:05:35.643Z,2.66
2022-12-20T05:06:35.638Z,2.62
2022-12-20T05:07:35.615Z,2.67
2022-12-20T05:08:35.601Z,2.55
2022-12-20T05:09:35.921Z,2.54
2022-12-20T05:10:35.832Z,2.6
2022-12-20T05:11:35.286Z,2.54
2022-12-20T05:12:35.762Z,2.6
2022-12-20T05:13:35.760Z,2.52
2022-12-20T05:14:35.744Z,2.6
2022-12-20T05:15:35.718Z,2.51
2022-12-20T05:16:35.687Z,2.55
2022-12-20T05:17:35.710Z,2.55
2022-12-20T05:18:35.681Z,2.55
2022-12-20T05:19:35.381Z,2.55
2022-12-20T05:20:35.623Z,2.54
2022-12-20T05:21:35.666Z,2.55
2022-12-20T05:22:35.590Z,2.54
2022-12-20T05:23:35.346Z,2.52
2022-12-20T05:24:35.558Z,2.54
2022-12-20T05:25:35.618Z,2.58
2022-12-20T05:26:35.563Z,2.55
2022-12-20T05:27:35.528Z,2.59
2022-12-20T05:28:35.213Z,2.6
2022-12-20T05:29:35.467Z,2.63
2022-12-20T05:30:35.459Z,2.63
2022-12-20T05:31:35.825Z,2.55
2022-12-20T05:32:35.405Z,2.55
2022-12-20T05:33:38.821Z,2.59
2022-12-20T05:34:35.131Z,2.6
2022-12-20T05:35:35.376Z,2.55
2022-12-20T05:36:35.348Z,2.59
2022-12-20T05:37:35.351Z,2.58
2022-12-20T05:38:35.297Z,2.58
2022-12-20T05:39:35.280Z,2.51
2022-12-20T05:40:35.261Z,2.62
2022-12-20T05:41:35.347Z,2.59
2022-12-20T05:42:34.963Z,2.6
2022-12-20T05:43:35.198Z,2.59
2022-12-20T05:44:35.177Z,2.51
2022-12-20T05:45:35.171Z,2.52
2022-12-20T05:46:35.110Z,2.51
2022-12-20T05:47:34.884Z,2.51
2022-12-20T05:48:34.845Z,2.52
2022-12-20T05:49:35.093Z,2.59
2022-12-20T05:50:34.824Z,2.52
2022-12-20T05:51:34.805Z,2.55
2022-12-20T05:52:35.067Z,2.52
2022-12-20T05:53:35.026Z,2.55
2022-12-20T05:54:34.742Z,2.48
2022-12-20T05:55:34.736Z,2.52
2022-12-20T05:56:34.712Z,2.51
2022-12-20T05:57:35.028Z,2.52
2022-12-20T05:58:34.665Z,2.55
2022-12-20T05:59:34.915Z,2.55
2022-12-20T06:00:34.662Z,2.59
2022-12-20T06:01:35.467Z,2.51
2022-12-20T06:02:35.388Z,2.55
2022-12-20T06:03:36.205Z,2.55
2022-12-20T06:04:35.721Z,2.54
2022-12-20T06:05:35.705Z,2.55
2022-12-20T06:06:35.180Z,2.58
2022-12-20T06:07:35.663Z,2.58
2022-12-20T06:08:35.388Z,2.63
2022-12-20T06:09:35.400Z,2.51
2022-12-20T06:10:35.367Z,2.63
2022-12-20T06:11:35.211Z,2.55
2022-12-20T06:12:35.582Z,2.58
2022-12-20T06:13:35.646Z,2.52
2022-12-20T06:14:35.308Z,2.58
2022-12-20T06:15:35.530Z,2.65
2022-12-20T06:16:35.382Z,2.6
2022-12-20T06:17:35.539Z,2.67
2022-12-20T06:18:35.473Z,2.62
2022-12-20T06:19:35.216Z,2.76
2022-12-20T06:20:35.468Z,2.65
2022-12-20T06:21:34.927Z,2.72
2022-12-20T06:22:35.382Z,2.66
2022-12-20T06:23:35.363Z,2.69
2022-12-20T06:24:35.112Z,2.73
2022-12-20T06:25:35.109Z,2.77
2022-12-20T06:26:35.308Z,2.83
2022-12-20T06:27:35.285Z,2.81
2022-12-20T06:28:35.035Z,2.8
2022-12-20T06:29:35.337Z,2.83
2022-12-20T06:30:38.558Z,2.85
2022-12-20T06:31:35.180Z,2.8
2022-12-20T06:32:35.220Z,2.83
2022-12-20T06:33:34.934Z,2.87
2022-12-20T06:34:34.908Z,2.88
2022-12-20T06:35:34.648Z,2.93
2022-12-20T06:36:35.138Z,2.99
2022-12-20T06:37:34.891Z,2.98
2022-12-20T06:38:34.845Z,3.01
2022-12-20T06:39:35.099Z,2.99
2022-12-20T06:40:35.130Z,2.98
2022-12-20T06:41:35.035Z,2.96
2022-12-20T06:42:35.086Z,3.05
2022-12-20T06:43:35.012Z,3.08
2022-12-20T06:44:34.720Z,3.05
2022-12-20T06:45:44.328Z,2.99
2022-12-20T06:46:35.215Z,3.05
2022-12-20T06:47:34.928Z,2.93
2022-12-20T06:48:34.910Z,2.98
2022-12-20T06:49:34.651Z,3.02
2022-12-20T06:50:34.902Z,2.99
2022-12-20T06:51:34.972Z,2.88
2022-12-20T06:52:34.916Z,2.95
2022-12-20T06:53:34.328Z,2.88
2022-12-20T06:54:34.804Z,2.88
2022-12-20T06:55:34.544Z,2.91
2022-12-20T06:56:41.904Z,2.84
2022-12-20T06:57:34.750Z,2.88
2022-12-20T06:58:35.336Z,2.91
2022-12-20T06:59:35.323Z,2.88
2022-12-20T07:00:35.664Z,2.81
2022-12-20T07:01:36.107Z,2.87
2022-12-20T07:02:36.024Z,2.81
2022-12-20T07:03:35.491Z,2.84
2022-12-20T07:04:35.538Z,2.84
2022-12-20T07:05:35.224Z,2.81
2022-12-20T07:06:35.448Z,2.8
2022-12-20T07:07:44.744Z,2.85
2022-12-20T07:08:34.892Z,2.85
2022-12-20T07:09:35.410Z,2.85
2022-12-20T07:10:35.147Z,2.95
2022-12-20T07:11:35.099Z,2.85
2022-12-20T07:12:35.091Z,2.9
2022-12-20T07:13:35.141Z,2.88
2022-12-20T07:14:34.794Z,2.88
2022-12-20T07:15:35.177Z,2.93
2022-12-20T07:16:35.567Z,2.87
2022-12-20T07:17:35.324Z,2.93
2022-12-20T07:18:34.739Z,2.93
2022-12-20T07:19:35.208Z,2.88
2022-12-20T07:20:35.420Z,2.96
2022-12-20T07:21:34.919Z,2.91
2022-12-20T07:22:35.161Z,2.9
2022-12-20T07:23:34.890Z,2.95
2022-12-20T07:24:35.137Z,2.91
2022-12-20T07:25:34.850Z,2.91
2022-12-20T07:26:35.088Z,2.96
2022-12-20T07:27:35.084Z,3.05
2022-12-20T07:28:35.053Z,2.96
2022-12-20T07:29:35.067Z,3.03
2022-12-20T07:30:35.015Z,2.99
2022-12-20T07:31:35.237Z,2.99
2022-12-20T07:32:35.076Z,3.06
2022-12-20T07:33:35.087Z,3.11
2022-12-20T07:34:35.004Z,3.13
2022-12-20T07:35:34.871Z,3.19
2022-12-20T07:36:34.783Z,3.08
2022-12-20T07:37:35.006Z,3.14
2022-12-20T07:38:34.611Z,3.14
2022-12-20T07:39:34.596Z,3.16
2022-12-20T07:40:34.938Z,3.14
2022-12-20T07:41:34.424Z,3.11
2022-12-20T07:42:50.392Z,3.13
2022-12-20T07:43:34.791Z,3.21
2022-12-20T07:44:34.545Z,3.2
2022-12-20T07:45:34.927Z,3.09
2022-12-20T07:46:35.086Z,3.13
2022-12-20T07:47:34.751Z,3.17
2022-12-20T07:48:34.177Z,3.13
2022-12-20T07:49:34.751Z,3.14
2022-12-20T07:50:34.666Z,3.09
2022-12-20T07:51:34.638Z,3.21
2022-12-20T07:52:34.387Z,3.19
2022-12-20T07:53:34.382Z,3.17
2022-12-20T07:54:34.323Z,3.24
2022-12-20T07:55:34.657Z,3.21
2022-12-20T07:56:41.521Z,3.21
2022-12-20T07:57:34.293Z,3.2
2022-12-20T07:58:34.266Z,3.19
2022-12-20T07:59:34.478Z,3.21
2022-12-20T08:00:34.238Z,3.19
2022-12-20T08:01:34.735Z,3.3
2022-12-20T08:02:35.336Z,3.24
2022-12-20T08:03:35.037Z,3.23
2022-12-20T08:04:34.393Z,3.24
2022-12-20T08:05:34.460Z,3.26
2022-12-20T08:06:34.359Z,3.35
2022-12-20T08:07:34.107Z,3.29
2022-12-20T08:08:34.317Z,3.35
2022-12-20T08:09:34.060Z,3.37
2022-12-20T08:10:34.319Z,3.39
2022-12-20T08:11:34.011Z,3.4
2022-12-20T08:12:34.021Z,3.43
2022-12-20T08:13:33.993Z,3.46
2022-12-20T08:14:33.976Z,3.43
2022-12-20T08:15:34.195Z,3.42
2022-12-20T08:16:34.156Z,3.43
2022-12-20T08:17:34.162Z,3.46
2022-12-20T08:18:34.151Z,3.51
2022-12-20T08:19:37.597Z,3.56
2022-12-20T08:20:33.874Z,3.46
2022-12-20T08:21:34.180Z,3.56
2022-12-20T08:22:34.079Z,3.53
2022-12-20T08:23:33.842Z,3.54
2022-12-20T08:24:33.771Z,3.49
2022-12-20T08:25:42.203Z,3.58
2022-12-20T08:26:33.998Z,3.56
2022-12-20T08:27:33.990Z,3.54
2022-12-20T08:28:33.725Z,3.51
2022-12-20T08:29:33.708Z,3.54
2022-12-20T08:30:33.780Z,3.56
2022-12-20T08:31:34.005Z,3.51
2022-12-20T08:32:33.889Z,3.57
2022-12-20T08:33:33.876Z,3.57
2022-12-20T08:34:33.850Z,3.53
2022-12-20T08:35:33.601Z,3.58
2022-12-20T08:36:33.818Z,3.58
2022-12-20T08:37:33.925Z,3.61
2022-12-20T08:38:33.545Z,3.63
2022-12-20T08:39:33.794Z,3.58
2022-12-20T08:40:33.240Z,3.75
2022-12-20T08:41:33.745Z,3.75
2022-12-20T08:42:33.558Z,3.69
2022-12-20T08:43:33.766Z,3.78
2022-12-20T08:44:33.679Z,3.76
2022-12-20T08:45:33.667Z,3.78
2022-12-20T08:46:34.006Z,3.76
2022-12-20T08:47:33.371Z,3.78
2022-12-20T08:48:33.346Z,3.79
2022-12-20T08:49:33.615Z,3.79
2022-12-20T08:50:33.612Z,3.76
2022-12-20T08:51:33.687Z,3.75
2022-12-20T08:52:33.566Z,3.75
2022-12-20T08:53:33.605Z,3.82
2022-12-20T08:54:33.561Z,3.76
2022-12-20T08:55:34.189Z,3.84
2022-12-20T08:56:33.469Z,3.85
2022-12-20T08:57:33.458Z,3.9
2022-12-20T08:58:33.835Z,3.81
2022-12-20T08:59:33.430Z,3.86
2022-12-20T09:00:33.398Z,3.84
2022-12-20T09:01:33.476Z,3.86
2022-12-20T09:02:33.785Z,3.84
2022-12-20T09:03:33.068Z,3.85
2022-12-20T09:04:33.343Z,3.89
2022-12-20T09:05:33.336Z,3.92
2022-12-20T09:06:33.073Z,3.86
2022-12-20T09:07:34.003Z,3.96
2022-12-20T09:08:33.275Z,3.92
2022-12-20T09:09:33.311Z,3.89
2022-12-20T09:10:33.216Z,3.93
2022-12-20T09:11:33.230Z,3.96
2022-12-20T09:12:33.187Z,3.97
2022-12-20T09:13:37.971Z,3.86
2022-12-20T09:14:32.896Z,3.99
2022-12-20T09:15:33.092Z,3.96
2022-12-20T09:16:33.097Z,3.96
2022-12-20T09:17:32.581Z,3.9
2022-12-20T09:18:33.096Z,3.97
2022-12-20T09:19:33.836Z,3.99
2022-12-20T09:20:33.041Z,4
2022-12-20T09:21:32.765Z,4.04
2022-12-20T09:22:32.778Z,4.1
2022-12-20T09:23:32.480Z,4.12
2022-12-20T09:24:32.730Z,4.12
2022-12-20T09:25:33.264Z,4.18
2022-12-20T09:26:33.106Z,4.26
2022-12-20T09:27:32.686Z,4.26
2022-12-20T09:28:32.707Z,4.26
2022-12-20T09:29:39.853Z,4.26
2022-12-20T09:30:32.876Z,4.24
2022-12-20T09:31:32.843Z,4.18
2022-12-20T09:32:32.832Z,4.17
2022-12-20T09:33:32.821Z,4.29
2022-12-20T09:34:32.821Z,4.3
2022-12-20T09:35:32.819Z,4.3
2022-12-20T09:36:32.787Z,4.36
2022-12-20T09:37:34.155Z,4.24
2022-12-20T09:38:32.723Z,4.3
2022-12-20T09:39:32.719Z,4.28
2022-12-20T09:40:32.722Z,4.28
2022-12-20T09:41:32.798Z,4.22
2022-12-20T09:42:32.714Z,4.26
2022-12-20T09:43:32.654Z,4.24
2022-12-20T09:44:32.369Z,4.32
2022-12-20T09:45:32.356Z,4.29
2022-12-20T09:46:32.250Z,4.29
2022-12-20T09:47:32.575Z,4.35
2022-12-20T09:48:32.567Z,4.2
2022-12-20T09:49:32.539Z,4.17
2022-12-20T09:50:32.533Z,4.26
2022-12-20T09:51:32.245Z,4.29
2022-12-20T09:52:32.249Z,4.24
2022-12-20T09:53:32.214Z,4.29
2022-12-20T09:54:32.456Z,4.18
2022-12-20T09:55:32.457Z,4.2
2022-12-20T09:56:32.193Z,4.17
2022-12-20T09:57:32.518Z,4.24
2022-12-20T09:58:32.395Z,4.18
2022-12-20T09:59:40.496Z,4.28
2022-12-20T10:00:32.345Z,4.3
2022-12-20T10:01:42.604Z,4.22
2022-12-20T10:03:11.736Z,4.28
2022-12-20T10:03:33.186Z,4.24
2022-12-20T10:04:33.172Z,4.29
2022-12-20T10:05:41.053Z,4.28
2022-12-20T10:06:32.255Z,4.26
2022-12-20T10:07:31.986Z,4.24
2022-12-20T10:08:32.214Z,4.24
2022-12-20T10:09:32.192Z,4.29
2022-12-20T10:10:32.176Z,4.24
2022-12-20T10:11:50.067Z,4.17
2022-12-20T10:12:32.140Z,4.17
2022-12-20T10:13:32.300Z,4.17
2022-12-20T10:14:31.914Z,4.28
2022-12-20T10:15:32.173Z,4.29
2022-12-20T10:16:32.379Z,4.29
2022-12-20T10:17:36.950Z,4.38
2022-12-20T10:18:32.146Z,4.3
2022-12-20T10:19:31.631Z,4.29
2022-12-20T10:20:32.116Z,4.3
2022-12-20T10:21:32.946Z,4.29
2022-12-20T10:22:31.813Z,4.32
2022-12-20T10:23:37.901Z,4.33
2022-12-20T10:24:31.802Z,4.35
2022-12-20T10:25:32.052Z,4.33
2022-12-20T10:26:31.747Z,4.36
2022-12-20T10:27:31.736Z,4.36
2022-12-20T10:28:31.741Z,4.36
2022-12-20T10:29:32.038Z,4.33
2022-12-20T10:30:31.950Z,4.32
2022-12-20T10:31:31.962Z,4.33
2022-12-20T10:32:33.211Z,4.42
2022-12-20T10:33:31.899Z,4.33
2022-12-20T10:34:46.746Z,4.38
2022-12-20T10:35:31.598Z,4.35
2022-12-20T10:36:32.182Z,4.35
2022-12-20T10:37:31.823Z,4.36
2022-12-20T10:38:31.557Z,4.36
2022-12-20T10:39:31.299Z,4.33
2022-12-20T10:41:24.304Z,4.24
2022-12-20T10:41:33.691Z,4.2
2022-12-20T10:42:33.613Z,4.3
2022-12-20T10:43:33.602Z,4.15
2022-12-20T10:44:33.602Z,4.14
2022-12-20T10:45:40.705Z,4.12
2022-12-20T10:46:33.405Z,4.17
2022-12-20T10:47:33.548Z,4.18
2022-12-20T10:48:33.294Z,4.2
2022-12-20T10:49:33.906Z,4.14
2022-12-20T10:50:33.222Z,4.14
2022-12-20T10:51:33.465Z,4.22
2022-12-20T10:52:32.920Z,4.2
2022-12-20T10:53:32.931Z,4.18
2022-12-20T10:54:33.417Z,4.12
2022-12-20T10:55:33.383Z,4.15
2022-12-20T10:56:33.400Z,4.26
2022-12-20T10:57:33.428Z,4.29
2022-12-20T10:58:33.069Z,4.29
2022-12-20T10:59:33.325Z,4.32
2022-12-20T11:00:33.126Z,4.35
2022-12-20T11:01:34.024Z,4.3
2022-12-20T11:02:44.494Z,4.33
2022-12-20T11:03:35.051Z,4.35
2022-12-20T11:04:34.295Z,4.42
2022-12-20T11:05:33.373Z,4.42
2022-12-20T11:06:33.011Z,4.46
2022-12-20T11:07:32.929Z,4.47
2022-12-20T11:09:02.980Z,4.53
2022-12-20T11:09:33.157Z,4.53
2022-12-20T11:10:33.414Z,4.56
2022-12-20T11:11:32.856Z,4.5
2022-12-20T11:12:33.026Z,4.56
2022-12-20T11:13:32.862Z,4.48
2022-12-20T11:14:41.995Z,4.56
2022-12-20T11:15:40.433Z,4.58
2022-12-20T11:16:32.901Z,4.5
2022-12-20T11:17:33.246Z,4.53
2022-12-20T11:18:33.048Z,4.5
2022-12-20T11:19:32.997Z,4.51
2022-12-20T11:20:32.701Z,4.51
2022-12-20T11:21:33.586Z,4.54
2022-12-20T11:22:32.964Z,4.53
2022-12-20T11:23:32.659Z,4.4
2022-12-20T11:24:32.901Z,4.6
2022-12-20T11:25:32.633Z,4.5
2022-12-20T11:26:32.603Z,4.48
2022-12-20T11:27:32.330Z,4.5
2022-12-20T11:28:32.831Z,4.44
2022-12-20T11:29:32.805Z,4.44
2022-12-20T11:30:32.800Z,4.47
2022-12-20T11:31:33.020Z,4.44
2022-12-20T11:32:32.752Z,4.46
2022-12-20T11:33:32.530Z,4.48
2022-12-20T11:34:32.468Z,4.5
2022-12-20T11:35:32.693Z,4.54
2022-12-20T11:36:32.443Z,4.48
2022-12-20T11:37:32.749Z,4.44
2022-12-20T11:38:32.685Z,4.38
2022-12-20T11:39:32.656Z,4.47
2022-12-20T11:40:32.644Z,4.46
2022-12-20T11:41:32.626Z,4.44
2022-12-20T11:42:32.086Z,4.4
2022-12-20T11:43:36.447Z,4.44
2022-12-20T11:44:32.618Z,4.4
2022-12-20T11:45:34.012Z,4.39
2022-12-20T11:46:32.412Z,4.46
2022-12-20T11:47:32.338Z,4.38
2022-12-20T11:48:32.206Z,4.4
2022-12-20T11:49:32.265Z,4.42
2022-12-20T11:50:32.450Z,4.38
2022-12-20T11:51:31.923Z,4.33
2022-12-20T11:52:32.198Z,4.29
2022-12-20T11:53:32.206Z,4.39
2022-12-20T11:54:32.399Z,4.35
2022-12-20T11:55:32.111Z,4.36
2022-12-20T11:56:32.089Z,4.22
2022-12-20T11:58:09.303Z,4.3
2022-12-20T11:58:32.079Z,4.32
2022-12-20T11:59:32.033Z,4.3
2022-12-20T12:00:32.050Z,4.36
2022-12-20T12:01:32.196Z,4.24
2022-12-20T12:02:32.490Z,4.29
2022-12-20T12:03:32.406Z,4.33
2022-12-20T12:04:32.208Z,4.32
2022-12-20T12:05:32.502Z,4.42
2022-12-20T12:06:32.173Z,4.39
2022-12-20T12:07:32.152Z,4.36
2022-12-20T12:08:32.126Z,4.33
2022-12-20T12:09:32.136Z,4.3
2022-12-20T12:10:31.881Z,4.32
2022-12-20T12:12:11.552Z,4.48
2022-12-20T12:12:32.123Z,4.47
2022-12-20T12:13:32.059Z,4.5
2022-12-20T12:14:32.038Z,4.48
2022-12-20T12:15:31.814Z,4.53
2022-12-20T12:16:32.307Z,4.53
2022-12-20T12:17:31.745Z,4.48
2022-12-20T12:18:31.717Z,4.54
2022-12-20T12:19:32.062Z,4.48
2022-12-20T12:20:31.925Z,4.47
2022-12-20T12:21:31.700Z,4.38
2022-12-20T12:22:31.687Z,4.4
2022-12-20T12:23:31.892Z,4.44
2022-12-20T12:24:31.652Z,4.51
2022-12-20T12:25:31.842Z,4.48
2022-12-20T12:26:31.602Z,4.47
2022-12-20T12:27:31.804Z,4.5
2022-12-20T12:28:31.540Z,4.57
2022-12-20T12:29:31.634Z,4.51
2022-12-20T12:30:31.511Z,4.44
2022-12-20T12:31:31.970Z,4.42
2022-12-20T12:32:31.478Z,4.39
2022-12-20T12:33:40.848Z,4.42
2022-12-20T12:34:31.694Z,4.36
2022-12-20T12:35:31.479Z,4.33
2022-12-20T12:36:31.721Z,4.28
2022-12-20T12:37:31.426Z,4.38
2022-12-20T12:38:31.656Z,4.39
2022-12-20T12:39:31.600Z,4.33
2022-12-20T12:40:31.341Z,4.36
2022-12-20T12:41:31.337Z,4.35
2022-12-20T12:42:31.575Z,4.36
2022-12-20T12:43:31.266Z,4.35
2022-12-20T12:44:31.255Z,4.32
2022-12-20T12:45:31.825Z,4.18
2022-12-20T12:46:31.755Z,4.29
2022-12-20T12:47:31.453Z,4.26
2022-12-20T12:48:31.456Z,4.28
2022-12-20T12:49:31.436Z,4.28
2022-12-20T12:50:31.154Z,4.24
2022-12-20T12:51:31.416Z,4.35
2022-12-20T12:52:38.308Z,4.35
2022-12-20T12:53:31.389Z,4.33
2022-12-20T12:54:31.085Z,4.32
2022-12-20T12:55:31.323Z,4.29
2022-12-20T12:56:49.564Z,4.17
2022-12-20T12:57:30.785Z,4.32
2022-12-20T12:58:31.020Z,4.26
2022-12-20T12:59:31.330Z,4.22
2022-12-20T13:00:31.017Z,4.35
2022-12-20T13:01:31.589Z,4.42
2022-12-20T13:02:32.136Z,4.32
2022-12-20T13:03:31.410Z,4.39
2022-12-20T13:04:30.929Z,4.44
2022-12-20T13:05:31.282Z,4.42
2022-12-20T13:06:30.985Z,4.4
2022-12-20T13:07:31.230Z,4.35
2022-12-20T13:08:31.196Z,4.39
2022-12-20T13:09:31.176Z,4.39
2022-12-20T13:10:31.151Z,4.42
2022-12-20T13:11:31.055Z,4.47
2022-12-20T13:12:31.030Z,4.47
2022-12-20T13:13:30.776Z,4.48
2022-12-20T13:14:31.148Z,4.46
2022-12-20T13:15:30.983Z,4.5
2022-12-20T13:17:22.320Z,4.46
2022-12-20T13:17:36.867Z,4.46
2022-12-20T13:18:36.623Z,4.47
2022-12-20T13:19:36.351Z,4.46
2022-12-20T13:20:36.565Z,4.46
2022-12-20T13:21:36.557Z,4.39
2022-12-20T13:22:36.552Z,4.4
2022-12-20T13:23:36.520Z,4.47
2022-12-20T13:24:36.521Z,4.48
2022-12-20T13:25:36.217Z,4.46
2022-12-20T13:26:36.472Z,4.42
2022-12-20T13:27:36.434Z,4.4
2022-12-20T13:28:36.401Z,4.4
2022-12-20T13:29:36.402Z,4.32
2022-12-20T13:30:36.078Z,4.36
2022-12-20T13:31:36.659Z,4.29
2022-12-20T13:32:36.372Z,4.36
2022-12-20T13:33:36.061Z,4.36
2022-12-20T13:34:35.796Z,4.28
2022-12-20T13:35:36.041Z,4.28
2022-12-20T13:36:36.055Z,4.21
2022-12-20T13:37:35.994Z,4.29
2022-12-20T13:38:36.262Z,4.29